Time;durP1;ratioP1;P1;durP2;ratioP2;P2;SDS_P1;SDS_P2;PMS_P1;PMS_P2;Temp;Humidity;BMP_temperature;BMP_pressure;BME280_temperature;BME280_humidity;BME280_pressure;Samples;Min_cycle;Max_cycle;Signal;HPM_P1;HPM_P2
2022/11/14 00:01:24;;;;;;;58.93;50.60;;;4.80;99.90;;;;;;5071469;28;20288;-51
2022/11/14 00:03:52;;;;;;;35.80;26.17;;;4.70;99.90;;;;;;5070649;28;20331;-51
2022/11/14 00:06:20;;;;;;;72.20;46.30;;;4.70;99.90;;;;;;5070921;28;20213;-51
2022/11/14 00:08:48;;;;;;;44.00;30.97;;;4.60;99.90;;;;;;5071286;28;20330;-51
2022/11/14 00:11:18;;;;;;;55.33;41.43;;;4.60;99.90;;;;;;5067496;28;20655;-52
2022/11/14 00:13:46;;;;;;;61.20;27.87;;;4.60;99.90;;;;;;5073818;28;20761;-51
2022/11/14 00:16:14;;;;;;;108.73;40.47;;;4.50;99.90;;;;;;5075868;28;20248;-52
2022/11/14 00:18:42;;;;;;;43.07;24.80;;;4.50;99.90;;;;;;5072796;28;20236;-51
2022/11/14 00:21:10;;;;;;;38.27;26.00;;;4.50;99.90;;;;;;5073355;28;20208;-52
2022/11/14 00:23:38;;;;;;;215.10;71.67;;;4.40;99.90;;;;;;5071473;28;20225;-52
2022/11/14 00:26:06;;;;;;;60.00;52.70;;;4.40;99.90;;;;;;5070525;28;20232;-52
2022/11/14 00:28:36;;;;;;;42.73;31.00;;;4.40;99.90;;;;;;5070745;28;20291;-52
2022/11/14 00:31:04;;;;;;;91.83;56.43;;;4.30;99.90;;;;;;5070515;28;20292;-52
2022/11/14 00:33:32;;;;;;;68.47;54.20;;;4.30;99.90;;;;;;5070175;28;20311;-52
2022/11/14 00:36:01;;;;;;;70.60;54.77;;;4.20;99.90;;;;;;5071250;28;20660;-52
2022/11/14 00:38:29;;;;;;;71.20;50.93;;;4.20;99.90;;;;;;5070442;28;20300;-52
2022/11/14 00:40:57;;;;;;;63.40;42.53;;;4.10;99.90;;;;;;5070353;28;20216;-52
2022/11/14 00:43:25;;;;;;;50.73;33.47;;;4.10;99.90;;;;;;5069730;28;20316;-52
2022/11/14 00:45:55;;;;;;;46.77;30.40;;;4.10;99.90;;;;;;5069698;28;20648;-52
2022/11/14 00:48:23;;;;;;;45.67;20.67;;;4.20;99.90;;;;;;5070606;28;20711;-52
2022/11/14 00:50:51;;;;;;;95.33;56.50;;;4.10;99.90;;;;;;5070336;28;20214;-51
2022/11/14 00:53:19;;;;;;;64.40;40.93;;;4.20;99.90;;;;;;5070093;28;20824;-52
2022/11/14 00:55:47;;;;;;;72.83;54.23;;;4.10;99.90;;;;;;5071165;28;20214;-52
2022/11/14 00:58:15;;;;;;;80.23;48.37;;;4.10;99.90;;;;;;5068946;28;20320;-51
2022/11/14 01:00:43;;;;;;;48.67;31.73;;;4.10;99.90;;;;;;5070230;28;20292;-52
2022/11/14 01:03:13;;;;;;;68.33;42.63;;;4.00;99.90;;;;;;5070096;28;20240;-52
2022/11/14 01:05:42;;;;;;;77.50;47.30;;;4.00;99.90;;;;;;5070650;28;20299;-52
2022/11/14 01:08:10;;;;;;;61.10;33.10;;;4.00;99.90;;;;;;5070440;28;20206;-51
2022/11/14 01:10:40;;;;;;;54.97;34.07;;;4.00;99.90;;;;;;5069281;28;20682;-51
2022/11/14 01:13:09;;;;;;;141.07;71.40;;;3.90;99.90;;;;;;5069591;28;20264;-52
2022/11/14 01:15:39;;;;;;;63.70;37.67;;;3.90;99.90;;;;;;5070061;28;20622;-52
2022/11/14 01:18:07;;;;;;;106.00;54.10;;;4.00;99.90;;;;;;5069574;28;20627;-52
2022/11/14 01:20:38;;;;;;;74.87;57.20;;;3.90;99.90;;;;;;5065561;28;20723;-52
2022/11/14 01:23:06;;;;;;;91.10;61.17;;;3.80;99.90;;;;;;5069213;28;20320;-52
2022/11/14 01:25:35;;;;;;;72.87;47.73;;;3.90;99.90;;;;;;5067892;28;20297;-52
2022/11/14 01:28:06;;;;;;;117.63;59.70;;;3.80;99.90;;;;;;5069397;28;20249;-52
2022/11/14 01:30:35;;;;;;;64.77;38.33;;;3.80;99.90;;;;;;5069260;28;20218;-51
2022/11/14 01:33:03;;;;;;;57.97;35.73;;;3.70;99.90;;;;;;5068585;28;20774;-51
2022/11/14 01:35:31;;;;;;;68.57;51.67;;;3.80;99.90;;;;;;5070057;28;20204;-51
2022/11/14 01:38:01;;;;;;;39.73;21.23;;;3.70;99.90;;;;;;5069904;28;20717;-52
2022/11/14 01:40:29;;;;;;;48.73;28.80;;;3.70;99.90;;;;;;5068218;28;20303;-51
2022/11/14 01:43:25;;;;;;;61.30;42.20;;;3.70;99.90;;;;;;5069034;28;20235;-52
2022/11/14 01:45:56;;;;;;;67.13;42.70;;;3.60;99.90;;;;;;5069946;28;20292;-51
2022/11/14 01:48:29;;;;;;;78.97;54.53;;;3.60;99.90;;;;;;5069754;28;20313;-52
2022/11/14 01:51:02;;;;;;;107.07;66.17;;;3.50;99.90;;;;;;5069518;28;20216;-52
2022/11/14 01:53:32;;;;;;;90.43;54.73;;;3.50;99.90;;;;;;5069354;28;20324;-52
2022/11/14 01:56:05;;;;;;;36.93;20.20;;;3.50;99.90;;;;;;5069235;28;20204;-52
2022/11/14 01:58:35;;;;;;;391.03;105.07;;;3.50;99.90;;;;;;5069134;28;20241;-51
2022/11/14 02:01:03;;;;;;;64.70;44.47;;;3.40;99.90;;;;;;5069789;28;20206;-52
2022/11/14 02:03:33;;;;;;;51.70;43.00;;;3.40;99.90;;;;;;5068532;28;20231;-51
2022/11/14 02:06:02;;;;;;;215.27;52.73;;;3.50;99.90;;;;;;5069388;28;20847;-52
2022/11/14 02:08:32;;;;;;;96.40;49.87;;;3.40;99.90;;;;;;5068650;28;20315;-51
2022/11/14 02:11:00;;;;;;;106.83;66.50;;;3.40;99.90;;;;;;5068266;28;20213;-52
2022/11/14 02:13:29;;;;;;;198.57;83.13;;;3.30;99.90;;;;;;5067379;28;20886;-52
2022/11/14 02:15:57;;;;;;;622.27;143.40;;;3.30;99.90;;;;;;5068354;28;20633;-51
2022/11/14 02:18:25;;;;;;;469.97;135.90;;;3.20;99.90;;;;;;5068629;28;20201;-52
2022/11/14 02:20:55;;;;;;;115.53;79.70;;;3.20;99.90;;;;;;5069004;28;20725;-51
2022/11/14 02:23:27;;;;;;;224.50;136.40;;;3.20;99.90;;;;;;5067973;28;20279;-51
2022/11/14 02:25:55;;;;;;;79.97;43.73;;;3.20;99.90;;;;;;5068860;28;20308;-51
2022/11/14 02:28:24;;;;;;;317.00;90.53;;;3.20;99.90;;;;;;5068121;28;20208;-51
2022/11/14 02:30:52;;;;;;;114.73;69.20;;;3.20;99.90;;;;;;5067081;28;20342;-52
2022/11/14 02:33:20;;;;;;;76.33;53.30;;;3.20;99.90;;;;;;5066290;28;20229;-51
2022/11/14 02:35:48;;;;;;;55.13;32.17;;;3.20;99.90;;;;;;5068222;28;20824;-51
2022/11/14 02:38:17;;;;;;;66.07;27.13;;;3.20;99.90;;;;;;5068475;28;20323;-51
2022/11/14 02:40:45;;;;;;;43.43;27.10;;;3.20;99.90;;;;;;5068299;28;20208;-51
2022/11/14 02:43:13;;;;;;;98.90;73.83;;;3.20;99.90;;;;;;5067876;28;20259;-51
2022/11/14 02:45:41;;;;;;;86.90;67.77;;;3.10;99.90;;;;;;5068188;28;20209;-52
2022/11/14 02:48:09;;;;;;;58.20;46.43;;;3.10;99.90;;;;;;5063474;28;20211;-51
2022/11/14 02:50:37;;;;;;;47.30;31.80;;;3.10;99.90;;;;;;5068025;28;20643;-51
2022/11/14 02:53:06;;;;;;;88.50;59.53;;;3.00;99.90;;;;;;5067881;28;20305;-51
2022/11/14 02:55:35;;;;;;;89.27;58.97;;;3.00;99.90;;;;;;5068053;28;20230;-51
2022/11/14 02:58:03;;;;;;;78.17;57.80;;;2.90;99.90;;;;;;5067302;28;20583;-52
2022/11/14 03:00:31;;;;;;;55.60;39.40;;;2.90;99.90;;;;;;5067739;28;20293;-52
2022/11/14 03:02:59;;;;;;;100.83;67.83;;;3.00;99.90;;;;;;5067773;28;20291;-51
2022/11/14 03:05:27;;;;;;;63.30;46.40;;;3.00;99.90;;;;;;5068296;28;20375;-51
2022/11/14 03:07:56;;;;;;;81.73;53.67;;;2.90;99.90;;;;;;5067922;28;20212;-52
2022/11/14 03:10:24;;;;;;;285.93;86.40;;;2.90;99.90;;;;;;5068087;28;20297;-51
2022/11/14 03:12:55;;;;;;;68.70;45.33;;;2.90;99.90;;;;;;5067222;28;20604;-51
2022/11/14 03:15:24;;;;;;;81.00;54.10;;;2.80;99.90;;;;;;5064866;28;20208;-52
2022/11/14 03:17:52;;;;;;;54.30;32.60;;;2.70;99.90;;;;;;5064202;28;20212;-51
2022/11/14 03:20:20;;;;;;;83.37;48.07;;;2.80;99.90;;;;;;5062917;28;20690;-51
2022/11/14 03:22:48;;;;;;;74.17;43.87;;;2.80;99.90;;;;;;5066825;28;20305;-51
2022/11/14 03:25:16;;;;;;;67.67;47.60;;;2.80;99.90;;;;;;5067933;28;20235;-51
2022/11/14 03:27:44;;;;;;;44.33;37.73;;;2.70;99.90;;;;;;5067878;28;20288;-51
2022/11/14 03:30:14;;;;;;;54.13;41.47;;;2.70;99.90;;;;;;5067243;28;20288;-51
2022/11/14 03:32:42;;;;;;;41.33;27.17;;;2.70;99.90;;;;;;5066929;28;20263;-51
2022/11/14 03:35:11;;;;;;;59.17;38.97;;;2.70;99.90;;;;;;5065868;28;20283;-51
2022/11/14 03:37:39;;;;;;;107.83;54.80;;;2.70;99.90;;;;;;5068481;28;20305;-51
2022/11/14 03:40:08;;;;;;;80.97;71.90;;;2.70;99.90;;;;;;5067956;28;20300;-52
2022/11/14 03:42:36;;;;;;;75.87;64.47;;;2.70;99.90;;;;;;5069699;28;20311;-51
2022/11/14 03:45:05;;;;;;;101.97;60.83;;;2.70;99.90;;;;;;5070887;28;20222;-51
2022/11/14 03:47:35;;;;;;;461.93;89.53;;;2.70;99.90;;;;;;5068059;28;20240;-51
2022/11/14 03:50:03;;;;;;;65.10;48.90;;;2.60;99.90;;;;;;5069612;28;20288;-52
2022/11/14 03:52:31;;;;;;;159.50;62.83;;;2.60;99.90;;;;;;5064909;28;20287;-51
2022/11/14 03:54:59;;;;;;;101.30;69.47;;;2.60;99.90;;;;;;5068826;28;20233;-51
2022/11/14 03:57:27;;;;;;;94.50;60.33;;;2.60;99.90;;;;;;5073583;28;20307;-52
2022/11/14 03:59:55;;;;;;;70.73;49.80;;;2.60;99.90;;;;;;5067595;28;20292;-52
2022/11/14 04:02:23;;;;;;;88.87;66.07;;;2.60;99.90;;;;;;5072004;28;20254;-51
2022/11/14 04:04:53;;;;;;;43.87;24.37;;;2.70;99.90;;;;;;5071070;28;20210;-51
2022/11/14 04:07:21;;;;;;;350.47;108.47;;;2.60;99.90;;;;;;5070598;28;20216;-51
2022/11/14 04:09:50;;;;;;;92.53;52.37;;;2.60;99.90;;;;;;5068482;28;20700;-51
2022/11/14 04:12:18;;;;;;;104.40;61.93;;;2.60;99.90;;;;;;5068118;28;20320;-51
2022/11/14 04:14:47;;;;;;;61.67;34.67;;;2.60;99.90;;;;;;5073358;28;20292;-51
2022/11/14 04:17:15;;;;;;;64.13;41.53;;;2.60;99.90;;;;;;5068530;28;20296;-51
2022/11/14 04:19:43;;;;;;;77.03;46.43;;;2.70;99.90;;;;;;5072297;28;20284;-51
2022/11/14 04:22:12;;;;;;;93.97;65.63;;;2.60;99.90;;;;;;5065938;28;21066;-52
2022/11/14 04:24:40;;;;;;;70.83;47.03;;;2.70;99.90;;;;;;5071592;28;20318;-51
2022/11/14 04:27:08;;;;;;;88.33;57.57;;;2.60;99.90;;;;;;5071661;28;20296;-52
2022/11/14 04:29:36;;;;;;;78.73;44.40;;;2.70;99.90;;;;;;5069799;28;20918;-51
2022/11/14 04:32:04;;;;;;;92.27;40.97;;;2.60;99.90;;;;;;5065585;28;20426;-52
2022/11/14 04:34:32;;;;;;;63.10;30.33;;;2.60;99.90;;;;;;5066451;28;20231;-51
2022/11/14 04:37:00;;;;;;;60.07;45.37;;;2.60;99.90;;;;;;5067186;28;20319;-51
2022/11/14 04:39:30;;;;;;;74.03;51.20;;;2.60;99.90;;;;;;5070395;28;20300;-51
2022/11/14 04:41:58;;;;;;;126.30;82.97;;;2.50;99.90;;;;;;5069184;28;20276;-51
2022/11/14 04:44:26;;;;;;;129.30;67.37;;;2.50;99.90;;;;;;5063763;28;20205;-52
2022/11/14 04:46:54;;;;;;;72.70;53.57;;;2.50;99.90;;;;;;5069354;28;20193;-52
2022/11/14 04:49:23;;;;;;;290.73;78.90;;;2.40;99.90;;;;;;5069410;28;20296;-51
2022/11/14 04:51:51;;;;;;;109.90;64.97;;;2.40;99.90;;;;;;5069146;28;20297;-51
2022/11/14 04:54:19;;;;;;;46.53;29.17;;;2.40;99.90;;;;;;5070250;28;20210;-51
2022/11/14 04:56:48;;;;;;;163.60;100.67;;;2.40;99.90;;;;;;5067069;28;20204;-51
2022/11/14 04:59:16;;;;;;;87.07;49.93;;;2.40;99.90;;;;;;5068740;28;20207;-51
2022/11/14 05:01:48;;;;;;;58.70;38.33;;;2.40;99.90;;;;;;5065992;28;20282;-51
2022/11/14 05:04:16;;;;;;;209.47;76.03;;;2.40;99.90;;;;;;5068875;28;20288;-51
2022/11/14 05:06:44;;;;;;;82.30;53.07;;;2.40;99.90;;;;;;5069767;28;20304;-52
2022/11/14 05:09:12;;;;;;;105.53;62.47;;;2.40;99.90;;;;;;5069834;28;20266;-51
2022/11/14 05:11:40;;;;;;;92.37;55.10;;;2.40;99.90;;;;;;5072817;28;20604;-51
2022/11/14 05:14:10;;;;;;;78.43;54.20;;;2.40;99.90;;;;;;5069558;28;20243;-52
2022/11/14 05:16:38;;;;;;;85.73;66.77;;;2.40;99.90;;;;;;5069246;28;20319;-52
2022/11/14 05:19:06;;;;;;;109.30;85.30;;;2.40;99.90;;;;;;5069011;28;20316;-51
2022/11/14 05:21:34;;;;;;;306.57;130.13;;;2.40;99.90;;;;;;5066296;28;20208;-51
2022/11/14 05:24:02;;;;;;;299.43;103.07;;;2.40;99.90;;;;;;5068632;28;20308;-51
2022/11/14 05:26:30;;;;;;;92.77;49.80;;;2.40;99.90;;;;;;5069054;28;20293;-52
2022/11/14 05:28:58;;;;;;;100.70;63.30;;;2.40;99.90;;;;;;5069315;28;20301;-52
2022/11/14 05:31:27;;;;;;;264.67;101.00;;;2.30;99.90;;;;;;5073227;28;20264;-52
2022/11/14 05:33:55;;;;;;;473.57;133.97;;;2.40;99.90;;;;;;5072171;28;20308;-51
2022/11/14 05:36:23;;;;;;;137.03;80.47;;;2.30;99.90;;;;;;5075178;28;20642;-51
2022/11/14 05:38:51;;;;;;;60.40;30.07;;;2.30;99.90;;;;;;5067271;28;20642;-51
2022/11/14 05:41:20;;;;;;;101.63;75.83;;;2.30;99.90;;;;;;5068536;28;20288;-52
2022/11/14 05:43:48;;;;;;;102.13;65.00;;;2.30;99.90;;;;;;5067695;28;20312;-52
2022/11/14 05:46:17;;;;;;;141.97;73.10;;;2.30;99.90;;;;;;5068092;28;20237;-52
2022/11/14 05:48:46;;;;;;;134.20;63.23;;;2.30;99.90;;;;;;5046431;28;20621;-51
2022/11/14 05:51:14;;;;;;;149.70;79.37;;;2.30;99.90;;;;;;5066046;28;20551;-52
2022/11/14 05:53:42;;;;;;;61.60;34.17;;;2.30;99.90;;;;;;5065554;28;20317;-52
2022/11/14 05:56:12;;;;;;;138.37;68.43;;;2.30;99.90;;;;;;5065066;28;20327;-52
2022/11/14 05:58:40;;;;;;;102.57;75.37;;;2.30;99.90;;;;;;5063079;28;20212;-51
2022/11/14 06:01:11;;;;;;;74.57;56.97;;;2.30;99.90;;;;;;5065979;28;20204;-51
2022/11/14 06:03:41;;;;;;;122.13;53.70;;;2.20;99.90;;;;;;5064350;28;20332;-51
2022/11/14 06:06:14;;;;;;;251.07;123.47;;;2.20;99.90;;;;;;5068349;28;20214;-51
2022/11/14 06:08:42;;;;;;;84.57;54.13;;;2.20;99.90;;;;;;5067309;28;20439;-51
2022/11/14 06:11:12;;;;;;;123.07;88.40;;;2.20;99.90;;;;;;5067397;28;20658;-51
2022/11/14 06:13:40;;;;;;;128.47;77.87;;;2.10;99.90;;;;;;5065623;28;20267;-51
2022/11/14 06:16:12;;;;;;;64.87;41.10;;;2.10;99.90;;;;;;5063225;28;20291;-52
2022/11/14 06:18:40;;;;;;;83.03;59.03;;;2.10;99.90;;;;;;5056446;28;20292;-52
2022/11/14 06:21:12;;;;;;;118.40;62.67;;;2.10;99.90;;;;;;5066405;28;20217;-52
2022/11/14 06:23:40;;;;;;;207.43;126.30;;;2.10;99.90;;;;;;5068663;28;20231;-52
2022/11/14 06:26:15;;;;;;;76.77;56.47;;;2.10;99.90;;;;;;5068832;28;20593;-52
2022/11/14 06:28:43;;;;;;;122.50;76.30;;;2.10;99.90;;;;;;5067322;28;20296;-52
2022/11/14 06:31:11;;;;;;;99.03;59.03;;;2.10;99.90;;;;;;5068637;28;20659;-52
2022/11/14 06:33:39;;;;;;;119.60;82.93;;;2.10;99.90;;;;;;5067979;28;20332;-52
2022/11/14 06:36:08;;;;;;;139.13;117.17;;;2.00;99.90;;;;;;5068758;28;20695;-51
2022/11/14 06:38:39;;;;;;;136.50;84.37;;;2.00;99.90;;;;;;5059044;28;20208;-52
2022/11/14 06:41:09;;;;;;;93.83;55.40;;;2.00;99.90;;;;;;5069497;28;20291;-52
2022/11/14 06:43:39;;;;;;;147.53;90.97;;;1.90;99.90;;;;;;5073336;28;20308;-52
2022/11/14 06:46:09;;;;;;;101.53;76.10;;;1.90;99.90;;;;;;5088554;28;20204;-52
2022/11/14 06:48:38;;;;;;;77.67;58.50;;;1.90;99.90;;;;;;5082014;28;20208;-53
2022/11/14 06:51:07;;;;;;;78.97;58.47;;;1.90;99.90;;;;;;5087103;28;20295;-51
2022/11/14 06:53:37;;;;;;;107.57;50.80;;;1.90;99.90;;;;;;5073740;28;20235;-52
2022/11/14 06:56:07;;;;;;;106.53;68.13;;;1.90;99.90;;;;;;5089492;28;20243;-52
2022/11/14 06:58:37;;;;;;;141.87;108.77;;;1.90;99.90;;;;;;5089585;28;20300;-52
2022/11/14 07:01:10;;;;;;;144.23;67.70;;;2.00;99.90;;;;;;5089821;28;20276;-51
2022/11/14 07:03:38;;;;;;;135.50;78.60;;;1.90;99.90;;;;;;5088585;28;20292;-52
2022/11/14 07:06:07;;;;;;;96.33;86.03;;;1.90;99.90;;;;;;5069596;28;20251;-52
2022/11/14 07:08:37;;;;;;;132.53;95.07;;;2.00;99.90;;;;;;5080691;28;20280;-52
2022/11/14 07:11:07;;;;;;;60.67;39.63;;;2.00;99.90;;;;;;5089161;28;20242;-52
2022/11/14 07:13:36;;;;;;;93.47;61.93;;;2.00;99.90;;;;;;5088373;28;20311;-51
2022/11/14 07:16:05;;;;;;;150.33;103.03;;;2.10;99.90;;;;;;5061382;28;20292;-52
2022/11/14 07:18:33;;;;;;;132.47;89.17;;;2.10;99.90;;;;;;5088929;28;20312;-51
2022/11/14 07:21:04;;;;;;;121.47;93.97;;;2.20;99.90;;;;;;5087925;28;20289;-52
2022/11/14 07:23:33;;;;;;;73.37;44.53;;;2.20;99.90;;;;;;5079787;28;20303;-52
2022/11/14 07:26:03;;;;;;;101.53;59.07;;;2.30;99.90;;;;;;5088982;28;20315;-52
2022/11/14 07:28:31;;;;;;;65.07;39.97;;;2.40;99.90;;;;;;5079483;28;20196;-52
2022/11/14 07:31:02;;;;;;;106.17;69.53;;;2.40;99.90;;;;;;5085776;28;20215;-51
2022/11/14 07:33:30;;;;;;;74.03;55.27;;;2.50;99.90;;;;;;5087945;28;20307;-52
2022/11/14 07:35:59;;;;;;;87.63;56.17;;;2.40;99.90;;;;;;5088483;28;20254;-52
2022/11/14 07:38:27;;;;;;;97.23;61.00;;;2.50;99.90;;;;;;5087915;28;20247;-52
2022/11/14 07:40:57;;;;;;;65.87;43.23;;;2.40;99.90;;;;;;5088756;28;20300;-51
2022/11/14 07:43:28;;;;;;;137.60;56.93;;;2.50;99.90;;;;;;5070147;28;20215;-51
2022/11/14 07:45:59;;;;;;;241.13;77.47;;;2.50;99.90;;;;;;5068849;28;20296;-52
2022/11/14 07:48:27;;;;;;;73.83;40.03;;;2.50;99.90;;;;;;5068184;28;20666;-52
2022/11/14 07:50:59;;;;;;;106.57;65.27;;;2.50;99.90;;;;;;5058777;28;20587;-52
2022/11/14 07:53:28;;;;;;;99.73;67.60;;;2.50;99.90;;;;;;5068057;28;20230;-52
2022/11/14 07:55:56;;;;;;;90.27;62.23;;;2.50;99.90;;;;;;5068994;28;20232;-52
2022/11/14 07:58:24;;;;;;;80.07;60.63;;;2.60;99.90;;;;;;5061818;28;20618;-52
2022/11/14 08:00:53;;;;;;;123.90;89.13;;;2.70;99.90;;;;;;5068442;28;20300;-53
2022/11/14 08:03:22;;;;;;;76.57;48.07;;;2.70;99.90;;;;;;5067739;28;20312;-52
2022/11/14 08:05:50;;;;;;;77.53;54.10;;;2.80;99.90;;;;;;5068379;28;20823;-52
2022/11/14 08:08:18;;;;;;;56.43;35.40;;;2.80;99.90;;;;;;5068890;28;20292;-51
2022/11/14 08:10:46;;;;;;;97.43;52.60;;;2.70;99.90;;;;;;5070766;28;20300;-52
2022/11/14 08:13:14;;;;;;;106.97;80.60;;;2.80;99.90;;;;;;5066180;28;20256;-51
2022/11/14 08:16:06;;;;;;;102.83;73.70;;;2.70;99.90;;;;;;5071428;28;20273;-51
2022/11/14 08:18:40;;;;;;;112.13;85.03;;;2.70;99.90;;;;;;5072009;28;20214;-51
2022/11/14 08:21:08;;;;;;;73.47;43.60;;;2.70;99.90;;;;;;5071831;28;20757;-52
2022/11/14 08:23:37;;;;;;;59.80;39.97;;;2.70;99.90;;;;;;5071625;28;20283;-51
2022/11/14 08:26:06;;;;;;;123.83;91.60;;;2.80;99.90;;;;;;5071263;28;20725;-51
2022/11/14 08:28:34;;;;;;;101.37;67.63;;;2.90;99.90;;;;;;5072211;28;20219;-51
2022/11/14 08:31:03;;;;;;;67.23;47.57;;;2.90;99.90;;;;;;5071771;28;20737;-51
2022/11/14 08:33:32;;;;;;;104.53;61.57;;;2.90;99.90;;;;;;5070432;28;20323;-51
2022/11/14 08:36:01;;;;;;;72.77;46.90;;;2.90;99.90;;;;;;5071988;28;20240;-52
2022/11/14 08:38:31;;;;;;;159.73;68.13;;;3.00;99.90;;;;;;5071223;28;20261;-52
2022/11/14 08:41:00;;;;;;;102.20;54.83;;;3.00;99.90;;;;;;5071546;28;20887;-52
2022/11/14 08:43:28;;;;;;;151.87;65.17;;;3.10;99.90;;;;;;5074813;28;20313;-52
2022/11/14 08:45:58;;;;;;;159.20;61.37;;;3.20;99.90;;;;;;5081826;28;20713;-51
2022/11/14 08:48:29;;;;;;;234.13;123.33;;;3.30;99.90;;;;;;5088571;28;20702;-51
2022/11/14 08:51:03;;;;;;;96.47;58.70;;;3.50;99.90;;;;;;5070471;28;20245;-52
2022/11/14 08:53:31;;;;;;;95.13;46.50;;;3.60;99.90;;;;;;5084971;28;20320;-52
2022/11/14 08:55:59;;;;;;;69.67;33.50;;;3.90;99.90;;;;;;5091805;28;20298;-52
2022/11/14 08:58:29;;;;;;;62.60;32.37;;;4.00;99.90;;;;;;5092017;28;20297;-52
2022/11/14 09:01:02;;;;;;;120.97;41.07;;;4.20;99.90;;;;;;5091812;28;20209;-51
2022/11/14 09:03:30;;;;;;;133.53;62.27;;;4.30;99.90;;;;;;5090839;28;20262;-50
2022/11/14 09:06:01;;;;;;;117.20;61.70;;;4.40;99.90;;;;;;5068480;28;20707;-50
2022/11/14 09:08:29;;;;;;;1430.17;306.87;;;4.60;99.90;;;;;;5071045;28;20201;-52
2022/11/14 09:11:01;;;;;;;996.90;223.20;;;4.70;99.90;;;;;;5063415;28;20214;-52
2022/11/14 09:13:33;;;;;;;1862.43;340.00;;;4.80;99.90;;;;;;5088034;28;20337;-52
2022/11/14 09:16:01;;;;;;;428.83;105.10;;;5.00;99.90;;;;;;5090122;28;20449;-51
2022/11/14 09:18:30;;;;;;;72.77;43.30;;;5.10;99.90;;;;;;5091343;28;20718;-52
2022/11/14 09:21:01;;;;;;;125.07;62.07;;;5.20;99.90;;;;;;5089785;28;20207;-52
2022/11/14 09:23:30;;;;;;;129.63;58.00;;;5.30;99.90;;;;;;5080679;28;20758;-52
2022/11/14 09:26:02;;;;;;;177.23;74.20;;;5.50;99.90;;;;;;5091602;28;20657;-52
2022/11/14 09:28:31;;;;;;;301.27;102.80;;;5.60;99.90;;;;;;5081193;28;20236;-53
2022/11/14 09:31:01;;;;;;;160.83;58.50;;;5.60;99.90;;;;;;5077918;28;20651;-52
2022/11/14 09:33:29;;;;;;;1045.40;185.23;;;5.70;99.90;;;;;;5090561;28;20724;-52
2022/11/14 09:35:58;;;;;;;834.53;182.10;;;5.90;99.90;;;;;;5091262;28;20558;-52
2022/11/14 09:38:28;;;;;;;258.27;97.57;;;6.00;99.90;;;;;;5091496;28;20637;-52
2022/11/14 09:41:16;;;;;;;215.60;82.37;;;6.10;99.90;;;;;;5082365;28;20284;-52
2022/11/14 09:44:04;;;;;;;486.07;157.13;;;6.10;99.90;;;;;;5076236;28;20329;-52
2022/11/14 09:46:37;;;;;;;220.83;81.90;;;6.20;99.90;;;;;;5091119;28;20209;-52
2022/11/14 09:49:11;;;;;;;425.87;144.80;;;6.40;99.90;;;;;;5079582;28;20200;-52
2022/11/14 09:51:48;;;;;;;258.13;102.37;;;6.40;99.90;;;;;;5091249;28;20674;-53
2022/11/14 09:54:23;;;;;;;419.13;120.93;;;6.50;99.90;;;;;;5091302;28;20312;-51
2022/11/14 09:56:51;;;;;;;676.73;160.30;;;6.60;99.90;;;;;;5090808;28;20295;-52
2022/11/14 09:59:20;;;;;;;193.23;67.10;;;6.70;99.90;;;;;;5090577;28;20206;-52
2022/11/14 10:01:57;;;;;;;374.50;103.43;;;6.80;99.90;;;;;;5079365;28;20292;-51
2022/11/14 10:04:39;;;;;;;486.67;148.43;;;6.90;99.90;;;;;;5090549;28;20203;-52
2022/11/14 10:07:15;;;;;;;312.73;108.23;;;7.00;99.90;;;;;;5069420;28;20250;-52
2022/11/14 10:10:03;;;;;;;434.00;106.13;;;6.90;99.90;;;;;;5082220;28;20208;-52
2022/11/14 10:12:43;;;;;;;375.23;96.43;;;6.90;99.90;;;;;;5083709;28;20254;-52
2022/11/14 10:15:18;;;;;;;145.13;56.63;;;6.80;99.90;;;;;;5082812;28;20259;-52
2022/11/14 10:18:11;;;;;;;127.80;60.63;;;6.90;99.90;;;;;;5068012;28;20208;-51
2022/11/14 10:20:44;;;;;;;578.80;122.57;;;6.90;99.90;;;;;;5086950;28;20682;-52
2022/11/14 10:23:26;;;;;;;264.10;76.70;;;6.90;99.90;;;;;;5078978;28;20311;-52
2022/11/14 10:26:07;;;;;;;1069.97;188.43;;;6.90;99.90;;;;;;5069524;28;20286;-52
2022/11/14 10:28:47;;;;;;;576.93;135.77;;;6.90;99.90;;;;;;5079768;28;20303;-51
2022/11/14 10:31:23;;;;;;;1999.90;500.47;;;7.00;99.90;;;;;;5089106;28;20213;-52
2022/11/14 10:33:59;;;;;;;623.73;152.90;;;7.00;99.90;;;;;;5069056;28;20324;-52
2022/11/14 10:36:39;;;;;;;479.17;97.30;;;7.10;99.90;;;;;;5089390;28;20339;-52
2022/11/14 10:39:16;;;;;;;570.57;148.03;;;7.10;99.90;;;;;;5090487;28;20254;-52
2022/11/14 10:41:47;;;;;;;389.80;101.37;;;7.10;99.90;;;;;;5088664;28;20740;-52
2022/11/14 10:44:33;;;;;;;623.17;133.50;;;7.20;99.90;;;;;;5086157;28;20207;-52
2022/11/14 10:47:06;;;;;;;496.30;126.97;;;7.20;99.90;;;;;;5095004;28;20291;-51
2022/11/14 10:49:37;;;;;;;1677.43;285.47;;;7.20;99.90;;;;;;5091973;28;20246;-52
2022/11/14 10:52:12;;;;;;;326.47;91.90;;;7.20;99.90;;;;;;5090227;28;20328;-52
2022/11/14 10:54:45;;;;;;;653.70;150.23;;;7.20;99.90;;;;;;5079874;28;20270;-52
2022/11/14 10:57:20;;;;;;;321.27;86.73;;;7.40;99.90;;;;;;5088672;28;20318;-52
2022/11/14 10:59:48;;;;;;;342.87;80.90;;;7.40;99.90;;;;;;5090243;28;20290;-51
2022/11/14 11:02:17;;;;;;;836.70;145.60;;;7.40;99.90;;;;;;5088224;28;20325;-52
2022/11/14 11:04:45;;;;;;;723.87;163.60;;;7.50;99.90;;;;;;5086027;28;20372;-52
2022/11/14 11:13:11;;;;;;;543.17;128.30;;;7.60;99.90;;;;;;5062032;28;20232;-51
2022/11/14 11:15:41;;;;;;;1213.60;243.30;;;7.60;99.90;;;;;;5065261;28;20271;-51
2022/11/14 11:18:25;;;;;;;64.33;43.13;;;7.60;99.90;;;;;;5068349;28;20725;-52
2022/11/14 11:21:16;;;;;;;982.30;187.47;;;7.70;99.90;;;;;;5066584;28;20291;-52
2022/11/14 11:23:52;;;;;;;285.23;86.90;;;7.70;99.90;;;;;;5064120;28;20314;-51
2022/11/14 11:26:22;;;;;;;1574.20;284.40;;;7.70;99.90;;;;;;5069119;28;20251;-52
2022/11/14 11:29:05;;;;;;;1999.90;529.70;;;7.70;99.90;;;;;;5066297;28;20295;-51
2022/11/14 11:31:51;;;;;;;688.90;183.50;;;7.70;99.90;;;;;;5065255;28;20227;-52
2022/11/14 11:34:24;;;;;;;291.07;83.40;;;7.80;99.90;;;;;;5064083;28;20201;-52
2022/11/14 11:36:57;;;;;;;1373.43;262.77;;;7.80;99.90;;;;;;5069362;28;20210;-51
2022/11/14 11:39:29;;;;;;;1999.90;362.87;;;7.90;99.90;;;;;;5064992;28;20636;-52
2022/11/14 11:42:01;;;;;;;1999.90;451.50;;;7.90;99.90;;;;;;5068039;28;21005;-51
2022/11/14 11:44:44;;;;;;;1999.90;554.67;;;7.90;99.90;;;;;;5080434;28;20647;-51
2022/11/14 11:47:16;;;;;;;737.77;130.20;;;7.90;99.90;;;;;;5088861;28;20278;-52
2022/11/14 11:49:46;;;;;;;1423.23;281.27;;;8.10;99.90;;;;;;5085337;28;20234;-52
2022/11/14 11:52:30;;;;;;;1077.57;316.60;;;8.10;99.90;;;;;;5088296;28;20287;-52
2022/11/14 11:55:03;;;;;;;1302.70;270.50;;;8.20;99.90;;;;;;5087974;28;20800;-52
2022/11/14 11:57:35;;;;;;;1767.17;332.43;;;8.20;99.90;;;;;;5088755;28;20235;-51
2022/11/14 12:00:13;;;;;;;1355.23;282.90;;;8.30;99.90;;;;;;5088865;28;20287;-51
2022/11/14 12:02:45;;;;;;;1999.90;370.77;;;8.40;99.90;;;;;;5087395;28;20359;-51
2022/11/14 12:05:25;;;;;;;1999.90;532.93;;;8.40;99.90;;;;;;5082044;28;20257;-51
2022/11/14 12:08:03;;;;;;;1999.90;496.47;;;8.40;99.90;;;;;;5066046;28;20295;-52
2022/11/14 12:10:34;;;;;;;214.83;75.17;;;8.50;99.90;;;;;;5081466;28;20295;-51
2022/11/14 12:13:22;;;;;;;859.57;192.07;;;8.40;99.90;;;;;;5087319;28;20228;-50
2022/11/14 12:16:04;;;;;;;1648.93;330.47;;;8.40;99.90;;;;;;5088406;28;20310;-52
2022/11/14 12:19:12;;;;;;;868.10;231.77;;;8.40;99.90;;;;;;5074407;28;20208;-52
2022/11/14 12:22:08;;;;;;;1621.90;370.20;;;8.50;99.90;;;;;;5053455;28;20209;-52
2022/11/14 12:25:02;;;;;;;1999.90;407.60;;;8.50;99.90;;;;;;5060838;28;20232;-51
2022/11/14 12:27:49;;;;;;;1072.63;205.87;;;8.60;99.90;;;;;;5055059;28;20308;-51
2022/11/14 12:30:20;;;;;;;348.73;118.47;;;8.60;99.90;;;;;;5078914;28;20220;-51
2022/11/14 12:32:56;;;;;;;699.93;199.80;;;8.50;99.90;;;;;;5087983;28;20233;-51
2022/11/14 12:35:28;;;;;;;440.93;135.60;;;8.50;99.90;;;;;;5088521;28;20238;-51
2022/11/14 12:37:58;;;;;;;845.50;190.97;;;8.50;99.90;;;;;;5088129;28;20254;-51
2022/11/14 12:40:31;;;;;;;196.13;82.13;;;8.60;99.90;;;;;;5079512;28;20200;-51
2022/11/14 12:43:01;;;;;;;409.67;124.70;;;8.60;99.90;;;;;;5073067;28;20663;-51
2022/11/14 12:45:58;;;;;;;249.13;93.20;;;8.60;99.90;;;;;;5074957;28;20228;-51
2022/11/14 12:48:33;;;;;;;57.10;34.83;;;8.60;99.90;;;;;;5071707;28;20296;-51
2022/11/14 12:51:02;;;;;;;692.93;191.23;;;8.60;99.90;;;;;;5083557;28;20284;-51
2022/11/14 12:53:41;;;;;;;650.50;156.63;;;8.60;99.90;;;;;;5083799;28;20234;-51